sensor_id;sensor_type;location;lat;lon;timestamp;pressure;altitude;pressure_sealevel;temperature;humidity
79067;BME280;68470;50.224;14.348;2023-08-07T00:02:02;98306.19;;;12.65;97.09
79067;BME280;68470;50.224;14.348;2023-08-07T00:04:29;98307.00;;;12.65;98.12
79067;BME280;68470;50.224;14.348;2023-08-07T00:06:55;98301.47;;;12.65;97.93
79067;BME280;68470;50.224;14.348;2023-08-07T00:09:20;98311.81;;;12.60;98.08
79067;BME280;68470;50.224;14.348;2023-08-07T00:11:46;98317.22;;;12.65;97.23
79067;BME280;68470;50.224;14.348;2023-08-07T00:14:12;98311.50;;;12.61;97.84
79067;BME280;68470;50.224;14.348;2023-08-07T00:16:38;98317.09;;;12.56;97.94
79067;BME280;68470;50.224;14.348;2023-08-07T00:19:03;98312.00;;;12.63;97.35
79067;BME280;68470;50.224;14.348;2023-08-07T00:21:29;98318.56;;;12.68;96.85
79067;BME280;68470;50.224;14.348;2023-08-07T00:23:55;98305.97;;;12.75;95.86
79067;BME280;68470;50.224;14.348;2023-08-07T00:26:21;98278.06;;;12.63;96.76
79067;BME280;68470;50.224;14.348;2023-08-07T00:28:46;98303.44;;;12.65;96.92
79067;BME280;68470;50.224;14.348;2023-08-07T00:31:12;98296.28;;;12.64;95.84
79067;BME280;68470;50.224;14.348;2023-08-07T00:33:38;98303.44;;;12.65;96.29
79067;BME280;68470;50.224;14.348;2023-08-07T00:36:04;98316.09;;;12.66;96.30
79067;BME280;68470;50.224;14.348;2023-08-07T00:38:29;98305.06;;;12.66;95.72
79067;BME280;68470;50.224;14.348;2023-08-07T00:40:55;98305.88;;;12.67;95.42
79067;BME280;68470;50.224;14.348;2023-08-07T00:43:21;98297.91;;;12.65;95.79
79067;BME280;68470;50.224;14.348;2023-08-07T00:45:47;98300.56;;;12.70;95.52
79067;BME280;68470;50.224;14.348;2023-08-07T00:48:15;98306.69;;;12.67;95.36
79067;BME280;68470;50.224;14.348;2023-08-07T00:50:42;98318.88;;;12.66;95.77
79067;BME280;68470;50.224;14.348;2023-08-07T00:53:08;98312.53;;;12.65;95.87
79067;BME280;68470;50.224;14.348;2023-08-07T00:55:35;98306.81;;;12.62;95.79
79067;BME280;68470;50.224;14.348;2023-08-07T00:58:01;98303.44;;;12.65;95.37
79067;BME280;68470;50.224;14.348;2023-08-07T01:00:28;98311.09;;;12.68;94.88
79067;BME280;68470;50.224;14.348;2023-08-07T01:02:55;98306.91;;;12.71;95.21
79067;BME280;68470;50.224;14.348;2023-08-07T01:05:24;98309.66;;;12.71;94.43
79067;BME280;68470;50.224;14.348;2023-08-07T01:07:53;98324.91;;;12.68;94.50
79067;BME280;68470;50.224;14.348;2023-08-07T01:10:26;98309.34;;;12.72;94.76
79067;BME280;68470;50.224;14.348;2023-08-07T01:13:11;98325.41;;;12.70;94.86
79067;BME280;68470;50.224;14.348;2023-08-07T01:15:39;98318.56;;;12.68;94.91
79067;BME280;68470;50.224;14.348;2023-08-07T01:18:07;98314.88;;;12.72;94.98
79067;BME280;68470;50.224;14.348;2023-08-07T01:20:33;98323.88;;;12.64;96.42
79067;BME280;68470;50.224;14.348;2023-08-07T01:22:59;98311.81;;;12.60;96.29
79067;BME280;68470;50.224;14.348;2023-08-07T01:25:25;98315.97;;;12.57;96.33
79067;BME280;68470;50.224;14.348;2023-08-07T01:28:25;98322.41;;;12.53;97.50
79067;BME280;68470;50.224;14.348;2023-08-07T01:30:56;98320.38;;;12.58;97.08
79067;BME280;68470;50.224;14.348;2023-08-07T01:33:32;98321.50;;;12.57;96.80
79067;BME280;68470;50.224;14.348;2023-08-07T01:36:02;98325.59;;;12.46;97.85
79067;BME280;68470;50.224;14.348;2023-08-07T01:38:30;98328.66;;;12.45;98.15
79067;BME280;68470;50.224;14.348;2023-08-07T01:40:58;98329.38;;;12.50;97.47
79067;BME280;68470;50.224;14.348;2023-08-07T01:43:24;98344.50;;;12.53;97.82
79067;BME280;68470;50.224;14.348;2023-08-07T01:45:50;98341.22;;;12.51;97.79
79067;BME280;68470;50.224;14.348;2023-08-07T01:48:15;98339.59;;;12.50;97.31
79067;BME280;68470;50.224;14.348;2023-08-07T01:50:41;98345.09;;;12.50;98.00
79067;BME280;68470;50.224;14.348;2023-08-07T01:53:07;98350.47;;;12.60;97.94
79067;BME280;68470;50.224;14.348;2023-08-07T01:55:33;98352.78;;;12.53;97.73
79067;BME280;68470;50.224;14.348;2023-08-07T01:57:58;98332.81;;;12.42;98.06
79067;BME280;68470;50.224;14.348;2023-08-07T02:00:24;98346.34;;;12.44;98.68
79067;BME280;68470;50.224;14.348;2023-08-07T02:02:50;98344.59;;;12.48;98.75
79067;BME280;68470;50.224;14.348;2023-08-07T02:05:16;98349.16;;;12.39;99.02
79067;BME280;68470;50.224;14.348;2023-08-07T02:07:42;98362.44;;;12.37;99.27
79067;BME280;68470;50.224;14.348;2023-08-07T02:10:08;98366.22;;;12.41;99.75
79067;BME280;68470;50.224;14.348;2023-08-07T02:12:34;98355.38;;;12.30;99.61
79067;BME280;68470;50.224;14.348;2023-08-07T02:15:01;98355.91;;;12.32;100.00
79067;BME280;68470;50.224;14.348;2023-08-07T02:17:28;98356.09;;;12.36;100.00
79067;BME280;68470;50.224;14.348;2023-08-07T02:19:56;98353.50;;;12.26;100.00
79067;BME280;68470;50.224;14.348;2023-08-07T02:22:21;98351.06;;;12.24;100.00
79067;BME280;68470;50.224;14.348;2023-08-07T02:24:47;98351.06;;;12.24;100.00
79067;BME280;68470;50.224;14.348;2023-08-07T02:27:13;98358.31;;;12.20;100.00
79067;BME280;68470;50.224;14.348;2023-08-07T02:29:39;98355.63;;;12.15;100.00
79067;BME280;68470;50.224;14.348;2023-08-07T02:32:05;98343.88;;;12.10;100.00
79067;BME280;68470;50.224;14.348;2023-08-07T02:34:31;98347.25;;;12.20;100.00
79067;BME280;68470;50.224;14.348;2023-08-07T02:36:57;98357.13;;;12.26;100.00
79067;BME280;68470;50.224;14.348;2023-08-07T02:39:24;98351.16;;;12.19;100.00
79067;BME280;68470;50.224;14.348;2023-08-07T02:41:50;98360.75;;;12.22;100.00
79067;BME280;68470;50.224;14.348;2023-08-07T02:44:16;98359.13;;;12.21;100.00
79067;BME280;68470;50.224;14.348;2023-08-07T02:46:43;98361.56;;;12.22;100.00
79067;BME280;68470;50.224;14.348;2023-08-07T02:49:09;98358.16;;;12.30;100.00
79067;BME280;68470;50.224;14.348;2023-08-07T02:51:35;98363.22;;;12.23;100.00
79067;BME280;68470;50.224;14.348;2023-08-07T02:54:00;98362.69;;;12.21;100.00
79067;BME280;68470;50.224;14.348;2023-08-07T02:56:26;98360.53;;;12.18;100.00
79067;BME280;68470;50.224;14.348;2023-08-07T02:58:52;98354.72;;;12.20;100.00
79067;BME280;68470;50.224;14.348;2023-08-07T03:01:19;98361.56;;;12.22;100.00
79067;BME280;68470;50.224;14.348;2023-08-07T03:03:45;98368.91;;;12.13;100.00
79067;BME280;68470;50.224;14.348;2023-08-07T03:06:10;98360.03;;;12.16;100.00
79067;BME280;68470;50.224;14.348;2023-08-07T03:08:36;98363.38;;;12.13;100.00
79067;BME280;68470;50.224;14.348;2023-08-07T03:11:02;98370.66;;;12.23;100.00
79067;BME280;68470;50.224;14.348;2023-08-07T03:13:27;98372.00;;;12.25;100.00
79067;BME280;68470;50.224;14.348;2023-08-07T03:16:00;98367.28;;;12.26;100.00
79067;BME280;68470;50.224;14.348;2023-08-07T03:18:30;98362.78;;;12.16;100.00
79067;BME280;68470;50.224;14.348;2023-08-07T03:20:56;98366.38;;;12.17;100.00
79067;BME280;68470;50.224;14.348;2023-08-07T03:23:23;98369.34;;;12.20;100.00
79067;BME280;68470;50.224;14.348;2023-08-07T03:25:49;98367.91;;;12.23;100.00
79067;BME280;68470;50.224;14.348;2023-08-07T03:28:16;98368.31;;;12.16;100.00
79067;BME280;68470;50.224;14.348;2023-08-07T03:30:42;98370.38;;;12.24;100.00
79067;BME280;68470;50.224;14.348;2023-08-07T03:33:08;98380.56;;;12.24;100.00
79067;BME280;68470;50.224;14.348;2023-08-07T03:35:33;98379.19;;;12.26;100.00
79067;BME280;68470;50.224;14.348;2023-08-07T03:37:59;98375.97;;;12.19;100.00
79067;BME280;68470;50.224;14.348;2023-08-07T03:40:25;98378.94;;;12.23;100.00
79067;BME280;68470;50.224;14.348;2023-08-07T03:42:51;98367.69;;;12.19;100.00
79067;BME280;68470;50.224;14.348;2023-08-07T03:45:16;98379.25;;;12.21;100.00
79067;BME280;68470;50.224;14.348;2023-08-07T03:47:42;98381.56;;;12.14;100.00
79067;BME280;68470;50.224;14.348;2023-08-07T03:50:08;98391.03;;;12.27;100.00
79067;BME280;68470;50.224;14.348;2023-08-07T03:52:34;98383.44;;;12.19;100.00
79067;BME280;68470;50.224;14.348;2023-08-07T03:54:59;98388.94;;;12.19;100.00
79067;BME280;68470;50.224;14.348;2023-08-07T03:57:25;98387.31;;;12.18;100.00
79067;BME280;68470;50.224;14.348;2023-08-07T03:59:51;98396.91;;;12.20;100.00
79067;BME280;68470;50.224;14.348;2023-08-07T04:02:17;98396.50;;;12.13;100.00
79067;BME280;68470;50.224;14.348;2023-08-07T04:04:42;98396.63;;;12.22;100.00
79067;BME280;68470;50.224;14.348;2023-08-07T04:07:08;98396.63;;;12.22;100.00
79067;BME280;68470;50.224;14.348;2023-08-07T04:09:34;98386.19;;;12.19;100.00
79067;BME280;68470;50.224;14.348;2023-08-07T04:11:59;98395.19;;;12.24;100.00
79067;BME280;68470;50.224;14.348;2023-08-07T04:14:26;98388.53;;;12.12;100.00
79067;BME280;68470;50.224;14.348;2023-08-07T04:16:52;98404.28;;;12.25;100.00
79067;BME280;68470;50.224;14.348;2023-08-07T04:19:17;98409.81;;;12.25;100.00
79067;BME280;68470;50.224;14.348;2023-08-07T04:21:43;98410.06;;;12.28;100.00
79067;BME280;68470;50.224;14.348;2023-08-07T04:24:09;98412.72;;;12.33;100.00
79067;BME280;68470;50.224;14.348;2023-08-07T04:26:37;98406.91;;;12.35;100.00
79067;BME280;68470;50.224;14.348;2023-08-07T04:29:03;98412.19;;;12.31;100.00
79067;BME280;68470;50.224;14.348;2023-08-07T04:31:29;98417.22;;;12.29;100.00
79067;BME280;68470;50.224;14.348;2023-08-07T04:33:58;98415.47;;;12.33;100.00
79067;BME280;68470;50.224;14.348;2023-08-07T04:36:24;98416.81;;;12.36;100.00
79067;BME280;68470;50.224;14.348;2023-08-07T04:38:49;98419.06;;;12.34;100.00
79067;BME280;68470;50.224;14.348;2023-08-07T04:41:16;98425.41;;;12.34;100.00
79067;BME280;68470;50.224;14.348;2023-08-07T04:43:41;98425.81;;;12.42;99.94
79067;BME280;68470;50.224;14.348;2023-08-07T04:46:09;98429.69;;;12.41;100.00
79067;BME280;68470;50.224;14.348;2023-08-07T04:48:35;98430.00;;;12.39;100.00
79067;BME280;68470;50.224;14.348;2023-08-07T04:51:02;98411.28;;;12.36;99.83
79067;BME280;68470;50.224;14.348;2023-08-07T04:53:27;98426.28;;;12.49;98.78
79067;BME280;68470;50.224;14.348;2023-08-07T04:55:53;98435.16;;;12.46;99.53
79067;BME280;68470;50.224;14.348;2023-08-07T04:58:19;98431.50;;;12.50;99.19
79067;BME280;68470;50.224;14.348;2023-08-07T05:00:45;98439.16;;;12.53;99.43
79067;BME280;68470;50.224;14.348;2023-08-07T05:03:11;98436.41;;;12.53;99.34
79067;BME280;68470;50.224;14.348;2023-08-07T05:05:37;98435.28;;;12.54;99.85
79067;BME280;68470;50.224;14.348;2023-08-07T05:08:02;98443.47;;;12.59;99.30
79067;BME280;68470;50.224;14.348;2023-08-07T05:10:28;98441.81;;;12.58;99.20
79067;BME280;68470;50.224;14.348;2023-08-07T05:12:54;98426.91;;;12.59;98.49
79067;BME280;68470;50.224;14.348;2023-08-07T05:15:24;98459.66;;;12.66;98.55
79067;BME280;68470;50.224;14.348;2023-08-07T05:17:50;98456.81;;;12.71;98.82
79067;BME280;68470;50.224;14.348;2023-08-07T05:20:16;98462.78;;;12.78;98.09
79067;BME280;68470;50.224;14.348;2023-08-07T05:22:43;98465.03;;;12.90;98.25
79067;BME280;68470;50.224;14.348;2023-08-07T05:25:09;98457.19;;;12.97;97.30
79067;BME280;68470;50.224;14.348;2023-08-07T05:27:35;98473.38;;;13.04;98.04
79067;BME280;68470;50.224;14.348;2023-08-07T05:30:01;98473.00;;;13.10;96.75
79067;BME280;68470;50.224;14.348;2023-08-07T05:32:27;98475.66;;;13.15;95.96
79067;BME280;68470;50.224;14.348;2023-08-07T05:34:54;98478.84;;;13.22;96.30
79067;BME280;68470;50.224;14.348;2023-08-07T05:37:19;98479.06;;;13.26;95.76
79067;BME280;68470;50.224;14.348;2023-08-07T05:39:45;98482.56;;;13.32;96.36
79067;BME280;68470;50.224;14.348;2023-08-07T05:42:12;98472.31;;;13.32;96.28
79067;BME280;68470;50.224;14.348;2023-08-07T05:44:38;98455.44;;;13.34;95.09
79067;BME280;68470;50.224;14.348;2023-08-07T05:47:03;98476.13;;;13.50;94.64
79067;BME280;68470;50.224;14.348;2023-08-07T05:49:30;98489.53;;;13.57;94.54
79067;BME280;68470;50.224;14.348;2023-08-07T05:51:55;98489.03;;;13.54;94.08
79067;BME280;68470;50.224;14.348;2023-08-07T05:54:21;98488.19;;;13.54;93.88
79067;BME280;68470;50.224;14.348;2023-08-07T05:56:47;98491.91;;;13.49;94.59
79067;BME280;68470;50.224;14.348;2023-08-07T05:59:13;98481.34;;;13.38;95.12
79067;BME280;68470;50.224;14.348;2023-08-07T06:01:39;98506.00;;;13.34;95.43
79067;BME280;68470;50.224;14.348;2023-08-07T06:04:06;98504.88;;;13.35;95.25
79067;BME280;68470;50.224;14.348;2023-08-07T06:06:32;98498.94;;;13.42;94.98
79067;BME280;68470;50.224;14.348;2023-08-07T06:09:00;98503.25;;;13.48;95.17
79067;BME280;68470;50.224;14.348;2023-08-07T06:11:27;98508.81;;;13.62;94.21
79067;BME280;68470;50.224;14.348;2023-08-07T06:13:53;98507.66;;;13.76;93.25
79067;BME280;68470;50.224;14.348;2023-08-07T06:16:19;98518.00;;;13.98;92.35
79067;BME280;68470;50.224;14.348;2023-08-07T06:18:45;98513.69;;;14.20;91.12
79067;BME280;68470;50.224;14.348;2023-08-07T06:21:11;98522.91;;;14.29;90.66
79067;BME280;68470;50.224;14.348;2023-08-07T06:23:37;98530.13;;;14.52;90.57
79067;BME280;68470;50.224;14.348;2023-08-07T06:26:03;98521.19;;;14.55;89.67
79067;BME280;68470;50.224;14.348;2023-08-07T06:28:32;98522.34;;;14.54;89.36
79067;BME280;68470;50.224;14.348;2023-08-07T06:31:05;98516.06;;;14.62;89.41
79067;BME280;68470;50.224;14.348;2023-08-07T06:33:31;98512.16;;;14.63;89.01
79067;BME280;68470;50.224;14.348;2023-08-07T06:35:59;98535.81;;;15.37;86.95
79067;BME280;68470;50.224;14.348;2023-08-07T06:38:25;98527.91;;;15.52;84.86
79067;BME280;68470;50.224;14.348;2023-08-07T06:40:50;98533.13;;;15.54;84.97
79067;BME280;68470;50.224;14.348;2023-08-07T06:43:16;98541.19;;;15.11;86.21
79067;BME280;68470;50.224;14.348;2023-08-07T06:45:45;98550.50;;;14.92;87.40
79067;BME280;68470;50.224;14.348;2023-08-07T06:48:12;98556.66;;;14.67;87.44
79067;BME280;68470;50.224;14.348;2023-08-07T06:50:37;98544.09;;;14.47;88.74
79067;BME280;68470;50.224;14.348;2023-08-07T06:53:03;98553.91;;;14.39;89.09
79067;BME280;68470;50.224;14.348;2023-08-07T06:55:29;98555.06;;;14.25;88.97
79067;BME280;68470;50.224;14.348;2023-08-07T06:57:54;98568.91;;;14.25;89.56
79067;BME280;68470;50.224;14.348;2023-08-07T07:00:20;98570.84;;;14.24;90.02
79067;BME280;68470;50.224;14.348;2023-08-07T07:02:46;98574.75;;;14.23;90.66
79067;BME280;68470;50.224;14.348;2023-08-07T07:05:12;98577.72;;;14.27;90.85
79067;BME280;68470;50.224;14.348;2023-08-07T07:07:38;98574.13;;;14.40;89.74
79067;BME280;68470;50.224;14.348;2023-08-07T07:10:04;98566.97;;;14.53;88.07
79067;BME280;68470;50.224;14.348;2023-08-07T07:12:31;98577.47;;;14.78;88.56
79067;BME280;68470;50.224;14.348;2023-08-07T07:14:56;98584.09;;;15.13;87.01
79067;BME280;68470;50.224;14.348;2023-08-07T07:17:22;98594.06;;;15.14;87.48
79067;BME280;68470;50.224;14.348;2023-08-07T07:19:48;98591.34;;;15.00;85.29
79067;BME280;68470;50.224;14.348;2023-08-07T07:22:14;98587.47;;;14.88;86.62
79067;BME280;68470;50.224;14.348;2023-08-07T07:24:40;98594.16;;;14.87;86.93
79067;BME280;68470;50.224;14.348;2023-08-07T07:27:06;98593.78;;;14.80;88.79
79067;BME280;68470;50.224;14.348;2023-08-07T07:29:31;98596.56;;;15.02;87.44
79067;BME280;68470;50.224;14.348;2023-08-07T07:31:57;98604.75;;;15.07;85.95
79067;BME280;68470;50.224;14.348;2023-08-07T07:34:23;98601.38;;;15.32;86.03
79067;BME280;68470;50.224;14.348;2023-08-07T07:36:49;98613.56;;;15.54;84.69
79067;BME280;68470;50.224;14.348;2023-08-07T07:39:16;98611.06;;;15.66;83.70
79067;BME280;68470;50.224;14.348;2023-08-07T07:41:42;98623.88;;;16.15;81.54
79067;BME280;68470;50.224;14.348;2023-08-07T07:44:08;98615.34;;;16.51;80.15
79067;BME280;68470;50.224;14.348;2023-08-07T07:46:34;98606.94;;;16.91;77.42
79067;BME280;68470;50.224;14.348;2023-08-07T07:48:59;98621.16;;;17.41;73.98
79067;BME280;68470;50.224;14.348;2023-08-07T07:51:26;98631.78;;;17.48;74.95
79067;BME280;68470;50.224;14.348;2023-08-07T07:53:52;98630.47;;;17.54;73.67
79067;BME280;68470;50.224;14.348;2023-08-07T07:56:18;98641.56;;;16.76;76.67
79067;BME280;68470;50.224;14.348;2023-08-07T07:58:44;98632.41;;;16.28;78.56
79067;BME280;68470;50.224;14.348;2023-08-07T08:01:10;98644.25;;;16.11;79.70
79067;BME280;68470;50.224;14.348;2023-08-07T08:03:36;98628.25;;;15.77;78.98
79067;BME280;68470;50.224;14.348;2023-08-07T08:06:02;98645.72;;;15.77;80.88
79067;BME280;68470;50.224;14.348;2023-08-07T08:08:28;98647.25;;;15.61;81.23
79067;BME280;68470;50.224;14.348;2023-08-07T08:10:54;98658.59;;;15.51;81.49
79067;BME280;68470;50.224;14.348;2023-08-07T08:13:20;98647.84;;;15.58;80.36
79067;BME280;68470;50.224;14.348;2023-08-07T08:15:48;98659.78;;;15.81;79.17
79067;BME280;68470;50.224;14.348;2023-08-07T08:18:13;98669.22;;;16.02;78.68
79067;BME280;68470;50.224;14.348;2023-08-07T08:20:40;98661.06;;;16.45;76.92
79067;BME280;68470;50.224;14.348;2023-08-07T08:23:05;98660.72;;;16.95;74.15
79067;BME280;68470;50.224;14.348;2023-08-07T08:25:31;98658.28;;;17.11;73.07
79067;BME280;68470;50.224;14.348;2023-08-07T08:27:58;98674.50;;;17.18;74.23
79067;BME280;68470;50.224;14.348;2023-08-07T08:30:25;98684.13;;;17.29;72.38
79067;BME280;68470;50.224;14.348;2023-08-07T08:32:51;98662.00;;;18.48;68.70
79067;BME280;68470;50.224;14.348;2023-08-07T08:35:17;98667.31;;;18.32;67.44
79067;BME280;68470;50.224;14.348;2023-08-07T08:37:42;98678.50;;;18.91;66.42
79067;BME280;68470;50.224;14.348;2023-08-07T08:40:09;98671.25;;;18.70;67.69
79067;BME280;68470;50.224;14.348;2023-08-07T08:42:43;98684.66;;;18.29;68.25
79067;BME280;68470;50.224;14.348;2023-08-07T08:45:12;98684.63;;;17.91;68.85
79067;BME280;68470;50.224;14.348;2023-08-07T08:47:39;98690.03;;;17.19;69.96
79067;BME280;68470;50.224;14.348;2023-08-07T08:50:12;98675.41;;;16.78;71.77
79067;BME280;68470;50.224;14.348;2023-08-07T08:52:44;98691.16;;;16.52;71.16
79067;BME280;68470;50.224;14.348;2023-08-07T08:55:11;98697.81;;;16.42;72.41
79067;BME280;68470;50.224;14.348;2023-08-07T08:57:38;98707.06;;;16.29;72.78
79067;BME280;68470;50.224;14.348;2023-08-07T09:00:10;98702.78;;;16.63;71.64
79067;BME280;68470;50.224;14.348;2023-08-07T09:02:57;98709.19;;;17.20;69.77
79067;BME280;68470;50.224;14.348;2023-08-07T09:05:24;98720.81;;;17.48;68.22
79067;BME280;68470;50.224;14.348;2023-08-07T09:07:50;98721.13;;;17.55;68.58
79067;BME280;68470;50.224;14.348;2023-08-07T09:10:16;98723.75;;;17.95;67.89
79067;BME280;68470;50.224;14.348;2023-08-07T09:12:49;98732.09;;;18.03;66.70
79067;BME280;68470;50.224;14.348;2023-08-07T09:15:19;98734.44;;;17.84;67.76
79067;BME280;68470;50.224;14.348;2023-08-07T09:17:45;98730.31;;;17.64;67.92
79067;BME280;68470;50.224;14.348;2023-08-07T09:20:12;98723.41;;;18.05;66.04
79067;BME280;68470;50.224;14.348;2023-08-07T09:22:40;98735.19;;;18.19;66.65
79067;BME280;68470;50.224;14.348;2023-08-07T09:25:07;98744.66;;;18.27;65.39
79067;BME280;68470;50.224;14.348;2023-08-07T09:27:36;98727.19;;;17.92;65.49
79067;BME280;68470;50.224;14.348;2023-08-07T09:30:03;98736.28;;;18.27;64.14
79067;BME280;68470;50.224;14.348;2023-08-07T09:32:29;98726.59;;;18.42;64.45
79067;BME280;68470;50.224;14.348;2023-08-07T09:34:56;98725.84;;;18.71;63.13
79067;BME280;68470;50.224;14.348;2023-08-07T09:37:23;98735.13;;;18.28;63.99
79067;BME280;68470;50.224;14.348;2023-08-07T09:39:49;98746.66;;;18.09;64.88
79067;BME280;68470;50.224;14.348;2023-08-07T09:42:16;98734.56;;;17.88;65.65
79067;BME280;68470;50.224;14.348;2023-08-07T09:44:43;98742.00;;;18.48;64.64
79067;BME280;68470;50.224;14.348;2023-08-07T09:47:15;98751.78;;;19.01;62.90
79067;BME280;68470;50.224;14.348;2023-08-07T09:49:42;98738.06;;;19.67;60.30
79067;BME280;68470;50.224;14.348;2023-08-07T09:52:10;98747.97;;;19.05;61.73
79067;BME280;68470;50.224;14.348;2023-08-07T09:54:39;98759.38;;;19.42;62.75
79067;BME280;68470;50.224;14.348;2023-08-07T09:57:04;98756.28;;;19.64;59.63
79067;BME280;68470;50.224;14.348;2023-08-07T09:59:32;98750.66;;;19.73;59.38
79067;BME280;68470;50.224;14.348;2023-08-07T10:01:59;98735.16;;;19.96;58.49
79067;BME280;68470;50.224;14.348;2023-08-07T10:04:26;98768.97;;;19.62;58.79
79067;BME280;68470;50.224;14.348;2023-08-07T10:06:52;98773.94;;;19.47;59.02
79067;BME280;68470;50.224;14.348;2023-08-07T10:09:19;98753.69;;;19.80;58.33
79067;BME280;68470;50.224;14.348;2023-08-07T10:11:45;98783.09;;;18.98;61.11
79067;BME280;68470;50.224;14.348;2023-08-07T10:14:13;98777.25;;;18.90;63.06
79067;BME280;68470;50.224;14.348;2023-08-07T10:16:40;98773.25;;;18.71;63.09
79067;BME280;68470;50.224;14.348;2023-08-07T10:19:08;98779.63;;;18.71;63.08
79067;BME280;68470;50.224;14.348;2023-08-07T10:21:38;98793.03;;;18.05;64.83
79067;BME280;68470;50.224;14.348;2023-08-07T10:24:06;98785.78;;;17.61;66.72
79067;BME280;68470;50.224;14.348;2023-08-07T10:26:38;98779.41;;;17.60;68.06
79067;BME280;68470;50.224;14.348;2023-08-07T10:29:10;98767.06;;;18.48;63.69
79067;BME280;68470;50.224;14.348;2023-08-07T10:31:38;98774.06;;;19.30;61.56
79067;BME280;68470;50.224;14.348;2023-08-07T10:34:05;98770.19;;;19.22;62.44
79067;BME280;68470;50.224;14.348;2023-08-07T10:36:34;98778.34;;;19.78;59.72
79067;BME280;68470;50.224;14.348;2023-08-07T10:39:12;98769.91;;;19.87;58.82
79067;BME280;68470;50.224;14.348;2023-08-07T10:41:52;98785.19;;;19.89;59.84
79067;BME280;68470;50.224;14.348;2023-08-07T10:44:24;98758.59;;;21.19;53.62
79067;BME280;68470;50.224;14.348;2023-08-07T10:46:52;98781.94;;;21.35;53.18
79067;BME280;68470;50.224;14.348;2023-08-07T10:51:58;98757.69;;;22.19;51.27
79067;BME280;68470;50.224;14.348;2023-08-07T10:54:25;98769.06;;;21.10;54.27
79067;BME280;68470;50.224;14.348;2023-08-07T10:56:54;98768.00;;;20.78;54.48
79067;BME280;68470;50.224;14.348;2023-08-07T10:59:21;98771.53;;;20.08;57.59
79067;BME280;68470;50.224;14.348;2023-08-07T11:01:54;98773.00;;;19.43;58.40
79067;BME280;68470;50.224;14.348;2023-08-07T11:04:21;98797.84;;;18.69;61.03
79067;BME280;68470;50.224;14.348;2023-08-07T11:06:50;98806.94;;;17.96;68.26
79067;BME280;68470;50.224;14.348;2023-08-07T11:09:17;98815.88;;;16.31;79.63
79067;BME280;68470;50.224;14.348;2023-08-07T11:11:45;98799.34;;;15.31;83.94
79067;BME280;68470;50.224;14.348;2023-08-07T11:14:14;98805.91;;;15.35;85.95
79067;BME280;68470;50.224;14.348;2023-08-07T11:16:40;98800.66;;;16.82;83.10
79067;BME280;68470;50.224;14.348;2023-08-07T11:19:08;98790.34;;;18.99;71.22
79067;BME280;68470;50.224;14.348;2023-08-07T11:21:34;98781.75;;;20.04;67.10
79067;BME280;68470;50.224;14.348;2023-08-07T11:24:01;98774.22;;;21.32;63.82
79067;BME280;68470;50.224;14.348;2023-08-07T11:26:26;98780.94;;;20.94;62.75
79067;BME280;68470;50.224;14.348;2023-08-07T11:28:57;98774.59;;;20.49;61.73
79067;BME280;68470;50.224;14.348;2023-08-07T11:31:24;98776.56;;;21.30;61.28
79067;BME280;68470;50.224;14.348;2023-08-07T11:33:51;98778.78;;;21.37;59.18
79067;BME280;68470;50.224;14.348;2023-08-07T11:36:17;98774.53;;;21.67;58.21
79067;BME280;68470;50.224;14.348;2023-08-07T11:38:44;98781.31;;;21.42;59.68
79067;BME280;68470;50.224;14.348;2023-08-07T11:41:14;98773.84;;;20.97;60.22
79067;BME280;68470;50.224;14.348;2023-08-07T11:43:41;98779.69;;;20.13;63.18
79067;BME280;68470;50.224;14.348;2023-08-07T11:46:08;98774.63;;;20.28;62.55
79067;BME280;68470;50.224;14.348;2023-08-07T11:48:36;98782.84;;;19.91;61.28
79067;BME280;68470;50.224;14.348;2023-08-07T11:51:03;98771.88;;;20.85;56.60
79067;BME280;68470;50.224;14.348;2023-08-07T11:53:32;98765.47;;;20.39;57.58
79067;BME280;68470;50.224;14.348;2023-08-07T11:56:06;98776.13;;;20.25;57.27
79067;BME280;68470;50.224;14.348;2023-08-07T11:58:40;98785.03;;;19.65;60.06
79067;BME280;68470;50.224;14.348;2023-08-07T12:01:09;98786.97;;;18.76;62.62
79067;BME280;68470;50.224;14.348;2023-08-07T12:03:38;98787.13;;;18.15;64.78
79067;BME280;68470;50.224;14.348;2023-08-07T12:06:05;98787.97;;;17.90;65.49
79067;BME280;68470;50.224;14.348;2023-08-07T12:08:40;98798.56;;;17.53;67.38
79067;BME280;68470;50.224;14.348;2023-08-07T12:11:10;98812.44;;;17.36;68.39
79067;BME280;68470;50.224;14.348;2023-08-07T12:13:38;98815.94;;;17.02;69.50
79067;BME280;68470;50.224;14.348;2023-08-07T12:16:05;98809.63;;;16.79;70.09
79067;BME280;68470;50.224;14.348;2023-08-07T12:18:31;98824.50;;;17.23;69.36
79067;BME280;68470;50.224;14.348;2023-08-07T12:21:03;98824.78;;;17.69;66.84
79067;BME280;68470;50.224;14.348;2023-08-07T12:23:33;98822.22;;;18.80;63.84
79067;BME280;68470;50.224;14.348;2023-08-07T12:25:59;98815.97;;;20.55;57.64
79067;BME280;68470;50.224;14.348;2023-08-07T12:28:26;98825.75;;;20.07;58.80
79067;BME280;68470;50.224;14.348;2023-08-07T12:30:52;98829.94;;;21.49;54.64
79067;BME280;68470;50.224;14.348;2023-08-07T12:33:18;98808.59;;;19.97;56.74
79067;BME280;68470;50.224;14.348;2023-08-07T12:35:44;98811.38;;;20.96;53.98
79067;BME280;68470;50.224;14.348;2023-08-07T12:38:10;98810.19;;;21.82;51.82
79067;BME280;68470;50.224;14.348;2023-08-07T12:40:36;98810.06;;;20.69;54.13
79067;BME280;68470;50.224;14.348;2023-08-07T12:43:03;98813.75;;;21.67;50.88
79067;BME280;68470;50.224;14.348;2023-08-07T12:45:29;98814.31;;;22.13;50.16
79067;BME280;68470;50.224;14.348;2023-08-07T12:47:55;98812.28;;;22.54;47.58
79067;BME280;68470;50.224;14.348;2023-08-07T12:50:21;98799.97;;;24.04;44.40